Time;durP1;ratioP1;P1;durP2;ratioP2;P2;SDS_P1;SDS_P2;PMS_P1;PMS_P2;Temp;Humidity;BMP_temperature;BMP_pressure;BME280_temperature;BME280_humidity;BME280_pressure;Samples;Min_cycle;Max_cycle;Signal;HPM_P1;HPM_P2
2022/04/11 00:02:05;;;;;;;14.25;10.90;;;;;;;8.33;53.55;101849.16;5074334;28;20028;-63
2022/04/11 00:04:30;;;;;;;12.68;10.85;;;;;;;8.32;53.16;101838.28;5090981;28;20035;-63
2022/04/11 00:06:55;;;;;;;14.43;11.18;;;;;;;8.27;53.25;101844.47;5090478;28;20081;-63
2022/04/11 00:09:21;;;;;;;13.48;10.48;;;;;;;8.29;52.60;101833.16;5087189;28;20678;-63
2022/04/11 00:11:46;;;;;;;12.43;10.48;;;;;;;8.34;52.46;101830.63;5084520;28;20033;-63
2022/04/11 00:14:13;;;;;;;12.10;10.80;;;;;;;8.30;52.76;101829.34;5079660;28;20025;-63
2022/04/11 00:16:38;;;;;;;11.75;10.15;;;;;;;8.29;52.81;101822.97;5081608;28;20430;-63
2022/04/11 00:19:03;;;;;;;11.77;10.55;;;;;;;8.27;52.99;101824.25;5076478;28;20020;-63
2022/04/11 00:21:29;;;;;;;14.85;10.27;;;;;;;8.29;52.98;101825.75;5082050;28;20025;-63
2022/04/11 00:23:54;;;;;;;13.52;11.30;;;;;;;8.26;53.51;101836.38;5074184;28;20039;-63
2022/04/11 00:26:19;;;;;;;13.65;10.57;;;;;;;8.21;53.54;101836.16;5087629;28;20390;-63
2022/04/11 00:28:47;;;;;;;11.77;10.10;;;;;;;8.20;53.51;101832.53;5076469;28;20033;-63
2022/04/11 00:31:13;;;;;;;11.98;10.63;;;;;;;8.17;53.68;101821.06;5071854;28;20020;-63
2022/04/11 00:33:38;;;;;;;13.05;10.20;;;;;;;8.12;53.75;101822.53;5085382;28;20035;-63
2022/04/11 00:36:03;;;;;;;13.32;10.48;;;;;;;8.14;53.75;101818.75;5090040;28;20020;-61
2022/04/11 00:38:29;;;;;;;16.48;10.80;;;;;;;8.09;54.44;101806.38;5078645;28;20024;-63
2022/04/11 00:40:54;;;;;;;12.60;10.02;;;;;;;8.07;54.06;101814.03;5089292;28;20032;-63
2022/04/11 00:43:39;;;;;;;14.05;10.52;;;;;;;8.21;53.55;101808.50;5082641;28;20453;-63
2022/04/11 00:46:07;;;;;;;16.02;12.05;;;;;;;8.16;53.31;101800.00;5071377;28;20481;-63
2022/04/11 00:48:33;;;;;;;14.40;11.60;;;;;;;8.13;54.09;101801.28;5079069;28;20032;-63
2022/04/11 00:51:15;;;;;;;14.75;11.80;;;;;;;8.16;54.41;101800.84;5085762;28;20033;-63
2022/04/11 00:53:43;;;;;;;16.58;11.95;;;;;;;8.12;54.05;101792.13;5085792;28;20053;-63
2022/04/11 00:56:12;;;;;;;17.10;11.95;;;;;;;8.09;54.38;101792.53;5081742;28;20111;-63
2022/04/11 00:58:40;;;;;;;14.65;11.95;;;;;;;8.09;53.28;101789.78;5087208;28;20509;-63
2022/04/11 01:01:07;;;;;;;18.92;12.18;;;;;;;8.09;54.15;101784.25;5081221;28;20039;-63
2022/04/11 01:03:32;;;;;;;13.35;11.25;;;;;;;8.07;53.67;101791.94;5086920;28;20502;-63
2022/04/11 01:05:59;;;;;;;16.38;12.13;;;;;;;8.08;53.97;101792.78;5091558;28;20029;-63
2022/04/11 01:08:24;;;;;;;18.15;11.68;;;;;;;8.04;54.14;101785.97;5083612;28;20020;-63
2022/04/11 01:10:51;;;;;;;16.10;11.80;;;;;;;8.06;53.96;101787.47;5075636;28;20028;-63
2022/04/11 01:13:17;;;;;;;17.02;12.68;;;;;;;8.06;54.05;101781.94;5071293;28;20494;-63
2022/04/11 01:15:59;;;;;;;21.45;12.07;;;;;;;8.13;53.99;101787.44;5070216;28;20033;-63
2022/04/11 01:18:27;;;;;;;16.58;12.70;;;;;;;8.09;54.10;101787.00;5085822;28;20115;-63
2022/04/11 01:20:53;;;;;;;14.80;12.27;;;;;;;8.08;54.46;101784.47;5090366;28;20036;-63
2022/04/11 01:23:19;;;;;;;16.02;12.43;;;;;;;8.03;54.60;101785.13;5087613;28;20486;-63
2022/04/11 01:25:52;;;;;;;16.48;12.85;;;;;;;8.06;55.01;101773.66;5090995;28;20024;-63
2022/04/11 01:28:19;;;;;;;17.20;12.23;;;;;;;8.00;55.23;101779.16;5076422;28;20043;-63
2022/04/11 01:30:45;;;;;;;18.00;12.98;;;;;;;8.02;55.30;101780.66;5090524;28;20031;-63
2022/04/11 01:33:19;;;;;;;17.80;12.73;;;;;;;8.00;54.24;101782.78;5081590;28;20012;-63
2022/04/11 01:35:45;;;;;;;17.83;12.73;;;;;;;7.92;54.60;101785.75;5087872;28;20055;-63
2022/04/11 01:38:13;;;;;;;17.30;13.00;;;;;;;7.92;54.76;101782.16;5091086;28;20467;-63
2022/04/11 01:40:52;;;;;;;15.20;12.73;;;;;;;7.97;54.87;101783.19;5084108;28;20135;-63
2022/04/11 01:43:21;;;;;;;15.57;12.75;;;;;;;7.88;54.36;101784.50;5087386;28;20039;-63
2022/04/11 01:45:46;;;;;;;17.77;12.85;;;;;;;7.88;55.33;101782.56;5071061;28;20193;-63
2022/04/11 01:48:12;;;;;;;16.25;12.18;;;;;;;7.87;55.75;101782.78;5077146;28;20078;-63
2022/04/11 01:50:38;;;;;;;17.75;13.15;;;;;;;7.82;56.01;101785.31;5075764;28;20524;-63
2022/04/11 01:53:08;;;;;;;15.85;12.63;;;;;;;7.80;54.99;101780.03;5090669;28;20120;-63
2022/04/11 01:55:34;;;;;;;20.35;13.18;;;;;;;7.79;55.47;101783.84;5089379;28;20039;-63
2022/04/11 01:57:59;;;;;;;17.70;12.52;;;;;;;7.78;55.22;101784.94;5088422;28;20397;-63
2022/04/11 02:00:25;;;;;;;15.43;12.23;;;;;;;7.80;55.28;101776.41;5090856;28;20036;-63
2022/04/11 02:02:50;;;;;;;17.58;12.93;;;;;;;7.77;55.35;101777.66;5075662;28;20027;-63
2022/04/11 02:05:16;;;;;;;17.13;12.57;;;;;;;7.77;56.21;101769.38;5093980;28;20028;-63
2022/04/11 02:07:41;;;;;;;16.05;12.52;;;;;;;7.75;55.51;101770.69;5077700;28;20389;-63
2022/04/11 02:10:07;;;;;;;14.50;12.85;;;;;;;7.72;55.80;101771.94;5074804;28;20103;-63
2022/04/11 02:12:32;;;;;;;14.73;12.15;;;;;;;7.71;55.26;101766.63;5090116;28;20367;-63
2022/04/11 02:14:57;;;;;;;19.40;13.05;;;;;;;7.70;55.39;101765.75;5094254;28;20031;-63
2022/04/11 02:17:23;;;;;;;14.18;12.68;;;;;;;7.74;55.39;101769.84;5088756;28;20027;-63
2022/04/11 02:19:48;;;;;;;14.52;12.18;;;;;;;7.73;55.39;101770.88;5073817;28;20115;-63
2022/04/11 02:22:13;;;;;;;13.65;12.38;;;;;;;7.72;55.16;101771.09;5074484;28;20028;-63
2022/04/11 02:24:41;;;;;;;15.95;12.85;;;;;;;7.71;55.27;101769.41;5074037;28;20054;-63
2022/04/11 02:27:06;;;;;;;15.38;13.02;;;;;;;7.73;55.08;101761.72;5077945;28;20433;-63
2022/04/11 02:29:32;;;;;;;15.65;13.02;;;;;;;7.66;55.60;101771.94;5093899;28;20035;-63
2022/04/11 02:31:57;;;;;;;16.77;12.82;;;;;;;7.60;55.17;101771.72;5092934;28;20378;-63
2022/04/11 02:34:25;;;;;;;17.73;12.07;;;;;;;7.59;54.76;101772.78;5092783;28;20032;-63
2022/04/11 02:36:50;;;;;;;13.57;12.23;;;;;;;7.53;55.98;101778.28;5093677;28;20536;-63
2022/04/11 02:39:16;;;;;;;14.43;11.90;;;;;;;7.50;55.32;101773.19;5084150;28;20032;-62
2022/04/11 02:41:41;;;;;;;14.85;12.77;;;;;;;7.45;55.63;101770.22;5079116;28;20033;-63
2022/04/11 02:44:06;;;;;;;13.95;12.50;;;;;;;7.40;56.05;101768.09;5076626;28;20382;-62
2022/04/11 02:46:31;;;;;;;17.52;12.20;;;;;;;7.39;55.36;101771.91;5086694;28;20024;-61
2022/04/11 02:48:57;;;;;;;15.95;12.57;;;;;;;7.36;55.70;101769.56;5079697;28;20024;-63
2022/04/11 02:51:22;;;;;;;13.73;12.32;;;;;;;7.34;56.22;101764.22;5074662;28;20031;-63
2022/04/11 02:53:47;;;;;;;16.05;13.18;;;;;;;7.28;55.97;101767.84;5073137;28;20025;-63
2022/04/11 02:56:12;;;;;;;17.08;12.95;;;;;;;7.30;55.46;101773.16;5080912;28;20045;-63
2022/04/11 02:58:38;;;;;;;14.60;13.05;;;;;;;7.24;55.67;101769.31;5089975;28;20063;-63
2022/04/11 03:01:03;;;;;;;14.45;12.95;;;;;;;7.21;55.99;101768.88;5088455;28;20073;-64
2022/04/11 03:03:29;;;;;;;13.90;11.77;;;;;;;7.12;56.11;101766.31;5093086;28;20036;-64
2022/04/11 03:05:54;;;;;;;17.98;13.10;;;;;;;7.12;56.03;101759.97;5091821;28;20051;-64
2022/04/11 03:08:19;;;;;;;13.05;11.73;;;;;;;7.07;55.94;101754.19;5089664;28;20531;-64
2022/04/11 03:10:44;;;;;;;14.18;12.77;;;;;;;7.08;55.24;101759.53;5073913;28;20037;-63
2022/04/11 03:13:10;;;;;;;15.98;12.95;;;;;;;7.04;55.99;101761.00;5072282;28;20044;-63
2022/04/11 03:15:35;;;;;;;17.52;13.40;;;;;;;7.01;56.04;101752.28;5080774;28;20030;-63
2022/04/11 03:18:00;;;;;;;13.95;12.57;;;;;;;6.99;55.66;101757.97;5087960;28;20036;-63
2022/04/11 03:20:25;;;;;;;14.93;12.40;;;;;;;6.98;55.97;101756.28;5089091;28;20487;-63
2022/04/11 03:22:51;;;;;;;14.05;12.65;;;;;;;6.91;56.13;101755.41;5080145;28;20100;-63
2022/04/11 03:25:18;;;;;;;14.20;12.80;;;;;;;6.88;56.22;101753.94;5088376;28;20025;-64
2022/04/11 03:27:44;;;;;;;14.50;13.00;;;;;;;6.84;56.38;101763.69;5092468;28;20423;-63
2022/04/11 03:30:10;;;;;;;15.40;12.75;;;;;;;6.81;55.90;101757.72;5091943;28;20039;-63
2022/04/11 03:32:35;;;;;;;15.43;12.95;;;;;;;6.82;56.06;101764.94;5085837;28;20479;-63
2022/04/11 03:35:06;;;;;;;14.43;12.95;;;;;;;6.81;56.04;101755.81;5083649;28;20128;-63
2022/04/11 03:37:32;;;;;;;14.77;12.98;;;;;;;6.79;55.73;101755.16;5071801;28;20040;-63
2022/04/11 03:39:57;;;;;;;13.73;12.43;;;;;;;6.80;56.33;101751.34;5087147;28;20032;-64
2022/04/11 03:42:22;;;;;;;14.05;12.65;;;;;;;6.77;55.34;101759.19;5074668;28;20036;-63
2022/04/11 03:44:47;;;;;;;14.65;12.60;;;;;;;6.73;55.65;101760.66;5086177;28;20036;-63
2022/04/11 03:47:13;;;;;;;14.65;12.70;;;;;;;6.76;55.80;101752.81;5085721;28;20492;-63
2022/04/11 03:49:38;;;;;;;14.40;12.93;;;;;;;6.71;56.11;101758.09;5077166;28;20028;-63
2022/04/11 03:52:04;;;;;;;14.55;13.07;;;;;;;6.76;55.76;101765.75;5087775;28;20498;-63
2022/04/11 03:54:29;;;;;;;13.60;12.30;;;;;;;6.67;55.70;101756.81;5080905;28;20044;-63
2022/04/11 03:56:54;;;;;;;17.00;13.35;;;;;;;6.63;55.87;101756.34;5071846;28;20376;-63
2022/04/11 03:59:19;;;;;;;18.38;12.93;;;;;;;6.63;56.02;101767.38;5072438;28;20047;-63
2022/04/11 04:01:45;;;;;;;14.10;12.27;;;;;;;6.61;56.08;101761.25;5076829;28;20040;-63
2022/04/11 04:04:10;;;;;;;15.00;13.00;;;;;;;6.55;56.29;101756.53;5072274;28;20027;-63
2022/04/11 04:06:36;;;;;;;15.02;13.48;;;;;;;6.52;56.15;101748.66;5077480;28;20090;-64
2022/04/11 04:09:01;;;;;;;14.55;12.95;;;;;;;6.51;56.25;101755.25;5087543;28;20047;-63
2022/04/11 04:11:26;;;;;;;14.48;13.18;;;;;;;6.51;56.24;101760.75;5071750;28;20028;-63
2022/04/11 04:13:54;;;;;;;14.50;13.10;;;;;;;6.49;56.11;101757.38;5082208;28;20063;-64
2022/04/11 04:16:20;;;;;;;15.57;13.93;;;;;;;6.47;56.12;101755.84;5076405;28;20029;-63
2022/04/11 04:18:45;;;;;;;15.20;13.55;;;;;;;6.51;56.49;101748.88;5084500;28;20081;-63
2022/04/11 04:21:10;;;;;;;15.60;14.02;;;;;;;6.56;56.53;101747.22;5080903;28;20020;-63
2022/04/11 04:23:35;;;;;;;14.75;13.00;;;;;;;6.51;56.40;101741.44;5090453;28;20475;-64
2022/04/11 04:26:01;;;;;;;16.20;13.48;;;;;;;6.49;56.66;101748.25;5090786;28;20081;-63
2022/04/11 04:28:26;;;;;;;14.50;13.20;;;;;;;6.51;56.42;101748.88;5080995;28;20032;-63
2022/04/11 04:30:51;;;;;;;15.52;13.93;;;;;;;6.55;55.89;101742.75;5077724;28;20493;-63
2022/04/11 04:33:17;;;;;;;14.32;12.68;;;;;;;6.55;56.47;101737.22;5089928;28;20570;-64
2022/04/11 04:35:42;;;;;;;14.63;13.23;;;;;;;6.55;55.96;101745.50;5086577;28;20036;-63
2022/04/11 04:38:13;;;;;;;18.85;13.38;;;;;;;6.61;55.74;101743.84;5088591;28;20031;-63
2022/04/11 04:40:38;;;;;;;18.33;13.82;;;;;;;6.53;55.93;101738.50;5077654;28;20464;-64
2022/04/11 04:43:08;;;;;;;16.08;12.98;;;;;;;6.50;55.92;101748.03;5071945;28;20043;-63
2022/04/11 04:45:35;;;;;;;15.13;13.63;;;;;;;6.50;56.12;101734.25;5082078;28;20020;-63
2022/04/11 04:48:00;;;;;;;20.17;13.90;;;;;;;6.51;56.36;101743.34;5079992;28;20036;-63
2022/04/11 04:50:25;;;;;;;16.02;13.65;;;;;;;6.48;56.14;101738.25;5077029;28;20600;-63
2022/04/11 04:52:51;;;;;;;15.57;13.35;;;;;;;6.44;55.94;101735.03;5083200;28;20028;-63
2022/04/11 04:55:16;;;;;;;14.00;11.98;;;;;;;6.44;56.21;101739.72;5082974;28;20020;-63
2022/04/11 04:57:41;;;;;;;14.13;12.70;;;;;;;6.40;56.72;101733.75;5072015;28;20404;-63
2022/04/11 05:00:07;;;;;;;13.85;12.35;;;;;;;6.42;56.79;101737.16;5073817;28;20045;-64
2022/04/11 05:02:38;;;;;;;15.00;13.43;;;;;;;6.41;56.12;101741.00;5072948;28;20502;-64
2022/04/11 05:05:09;;;;;;;14.70;12.85;;;;;;;6.35;56.94;101736.28;5072597;28;20043;-63
2022/04/11 05:07:34;;;;;;;15.00;12.80;;;;;;;6.35;56.62;101731.59;5078108;28;20483;-63
2022/04/11 05:10:01;;;;;;;15.75;12.93;;;;;;;6.32;56.70;101737.53;5085822;28;20105;-63
2022/04/11 05:12:26;;;;;;;13.70;12.32;;;;;;;6.36;56.93;101729.69;5090496;28;20016;-63
2022/04/11 05:14:52;;;;;;;16.05;11.90;;;;;;;6.44;56.64;101732.28;5089113;28;20394;-64
2022/04/11 05:17:21;;;;;;;16.30;12.25;;;;;;;6.45;56.64;101731.25;5090976;28;20020;-62
2022/04/11 05:19:46;;;;;;;15.98;12.52;;;;;;;6.51;55.78;101727.66;5082430;28;20111;-62
2022/04/11 05:22:12;;;;;;;18.52;12.25;;;;;;;6.55;56.31;101722.59;5076876;28;20119;-62
2022/04/11 05:24:37;;;;;;;17.02;12.25;;;;;;;6.61;55.72;101728.13;5072200;28;20052;-61
2022/04/11 05:27:02;;;;;;;15.65;11.38;;;;;;;6.68;55.69;101721.78;5079746;28;20028;-62
2022/04/11 05:29:28;;;;;;;13.52;11.73;;;;;;;6.70;56.10;101723.28;5086735;28;20059;-61
2022/04/11 05:31:53;;;;;;;14.90;11.93;;;;;;;6.71;56.04;101724.97;5085802;28;20032;-61
2022/04/11 05:34:18;;;;;;;15.95;12.05;;;;;;;6.74;55.98;101719.06;5075867;28;20028;-62
2022/04/11 05:36:43;;;;;;;15.63;12.07;;;;;;;6.71;55.81;101718.63;5091403;28;20055;-61
2022/04/11 05:39:09;;;;;;;14.20;11.20;;;;;;;6.84;55.25;101724.22;5091600;28;20379;-61
2022/04/11 05:41:34;;;;;;;14.05;11.82;;;;;;;6.85;55.36;101721.22;5091934;28;20055;-61
2022/04/11 05:43:59;;;;;;;13.73;11.50;;;;;;;6.94;54.60;101724.63;5092106;28;20386;-62
2022/04/11 05:46:24;;;;;;;12.93;10.80;;;;;;;7.00;54.99;101725.75;5092569;28;20035;-61
2022/04/11 05:48:49;;;;;;;13.40;11.32;;;;;;;6.99;54.81;101726.78;5084528;28;20040;-61
2022/04/11 05:51:15;;;;;;;15.27;11.40;;;;;;;7.05;54.64;101729.56;5079577;28;20396;-62
2022/04/11 05:53:40;;;;;;;12.50;11.05;;;;;;;7.12;53.80;101721.31;5090893;28;20044;-62
2022/04/11 05:56:05;;;;;;;13.73;10.70;;;;;;;7.18;53.85;101725.97;5088115;28;20495;-62
2022/04/11 05:58:33;;;;;;;13.50;10.80;;;;;;;7.27;53.53;101732.13;5086976;28;20048;-62
2022/04/11 06:00:59;;;;;;;14.55;11.38;;;;;;;7.26;53.48;101727.69;5091829;28;20016;-62
2022/04/11 06:03:24;;;;;;;15.00;10.90;;;;;;;7.32;52.89;101718.56;5082312;28;20034;-61
2022/04/11 06:05:49;;;;;;;13.48;10.98;;;;;;;7.36;52.93;101714.31;5085868;28;20093;-62
2022/04/11 06:08:15;;;;;;;15.27;11.07;;;;;;;7.42;52.95;101716.22;5082444;28;20032;-62
2022/04/11 06:10:40;;;;;;;11.88;10.57;;;;;;;7.51;53.66;101716.91;5087231;28;20032;-62
2022/04/11 06:13:05;;;;;;;14.77;10.50;;;;;;;7.52;53.50;101716.69;5087793;28;20479;-62
2022/04/11 06:15:30;;;;;;;11.60;9.85;;;;;;;7.61;52.60;101720.91;5082850;28;20050;-62
2022/04/11 06:17:56;;;;;;;12.50;10.05;;;;;;;7.71;52.64;101727.94;5087355;28;20035;-62
2022/04/11 06:20:24;;;;;;;13.07;10.38;;;;;;;7.76;52.03;101733.69;5088848;28;20047;-62
2022/04/11 06:22:49;;;;;;;10.85;9.48;;;;;;;7.86;51.63;101723.06;5089153;28;20035;-62
2022/04/11 06:25:14;;;;;;;12.30;10.30;;;;;;;7.93;51.79;101723.03;5089428;28;20086;-63
2022/04/11 06:27:42;;;;;;;11.85;10.07;;;;;;;7.99;51.80;101728.56;5092375;28;20051;-62
2022/04/11 06:30:08;;;;;;;16.67;10.70;;;;;;;8.06;51.86;101728.56;5090547;28;20034;-63
2022/04/11 06:32:33;;;;;;;18.20;10.13;;;;;;;8.14;52.03;101724.72;5085173;28;20025;-62
2022/04/11 06:34:59;;;;;;;13.13;9.23;;;;;;;8.21;51.93;101725.53;5086611;28;20027;-62
2022/04/11 06:37:25;;;;;;;11.82;9.50;;;;;;;8.27;51.74;101722.75;5085344;28;20399;-63
2022/04/11 06:39:51;;;;;;;11.32;8.98;;;;;;;8.35;51.80;101727.22;5086639;28;20035;-62
2022/04/11 06:42:20;;;;;;;13.98;9.35;;;;;;;8.39;51.10;101727.66;5091271;28;20035;-62
2022/04/11 06:44:45;;;;;;;12.32;8.73;;;;;;;8.46;50.96;101731.25;5091047;28;20024;-62
2022/04/11 06:47:10;;;;;;;14.07;9.70;;;;;;;8.52;51.14;101728.44;5085914;28;20047;-61
2022/04/11 06:49:36;;;;;;;11.48;9.05;;;;;;;8.61;50.26;101723.53;5082886;28;20028;-62
2022/04/11 06:52:02;;;;;;;11.32;8.85;;;;;;;8.72;50.61;101731.13;5085030;28;20115;-60
2022/04/11 06:54:27;;;;;;;13.38;9.00;;;;;;;8.78;50.61;101733.03;5086506;28;20390;-62
2022/04/11 06:56:53;;;;;;;10.38;7.20;;;;;;;9.19;56.04;101740.06;5082663;28;20031;-62
2022/04/11 06:59:19;;;;;;;10.40;8.68;;;;;;;9.14;49.87;101736.28;5081439;28;20032;-63
2022/04/11 07:01:44;;;;;;;14.85;8.25;;;;;;;9.24;49.71;101725.56;5088554;28;20028;-61
2022/04/11 07:04:10;;;;;;;15.18;8.20;;;;;;;9.29;49.08;101736.81;5086744;28;20062;-61
2022/04/11 07:06:37;;;;;;;10.02;7.85;;;;;;;9.37;49.33;101733.78;5083735;28;20451;-61
2022/04/11 07:09:08;;;;;;;12.35;8.30;;;;;;;9.43;49.12;101738.44;5088326;28;20036;-60
2022/04/11 07:11:34;;;;;;;14.60;7.90;;;;;;;9.50;48.82;101730.91;5083651;28;20547;-61
2022/04/11 07:14:00;;;;;;;9.48;8.20;;;;;;;9.56;48.33;101731.94;5084239;28;20027;-62
2022/04/11 07:16:25;;;;;;;9.55;7.28;;;;;;;9.61;49.74;101725.72;5084459;28;20024;-60
2022/04/11 07:18:51;;;;;;;9.02;7.50;;;;;;;9.67;48.24;101716.47;5089745;28;20070;-61
2022/04/11 07:21:19;;;;;;;8.45;7.20;;;;;;;9.74;48.64;101714.50;5083186;28;20028;-60
2022/04/11 07:23:45;;;;;;;9.25;7.45;;;;;;;9.76;48.50;101715.13;5083615;28;20040;-60
2022/04/11 07:26:10;;;;;;;12.18;7.93;;;;;;;9.84;48.22;101703.75;5080579;28;20031;-62
2022/04/11 07:28:35;;;;;;;10.60;7.72;;;;;;;9.92;47.99;101709.00;5085128;28;20025;-62
2022/04/11 07:31:00;;;;;;;11.50;7.70;;;;;;;10.00;47.47;101717.03;5089676;28;20077;-63
2022/04/11 07:33:26;;;;;;;11.00;7.60;;;;;;;10.04;47.45;101709.97;5095197;28;20020;-62
2022/04/11 07:35:53;;;;;;;11.52;7.07;;;;;;;10.14;47.11;101709.44;5091492;28;20031;-62
2022/04/11 07:38:19;;;;;;;9.38;7.03;;;;;;;10.25;47.42;101703.16;5088505;28;20033;-62
2022/04/11 07:40:47;;;;;;;8.40;6.65;;;;;;;10.35;47.05;101699.84;5089817;28;20059;-62
2022/04/11 07:43:15;;;;;;;10.70;6.55;;;;;;;10.47;46.51;101698.00;5087118;28;20028;-61
2022/04/11 07:45:41;;;;;;;12.10;7.15;;;;;;;10.57;46.16;101687.22;5085897;28;20040;-62
2022/04/11 07:48:10;;;;;;;10.85;6.13;;;;;;;10.64;45.94;101695.44;5091553;28;20398;-62
2022/04/11 07:50:35;;;;;;;11.30;6.63;;;;;;;10.71;45.52;101693.41;5087531;28;20031;-62
2022/04/11 07:53:01;;;;;;;11.57;6.25;;;;;;;10.80;45.35;101693.94;5092726;28;20040;-61
2022/04/11 07:55:29;;;;;;;7.80;6.38;;;;;;;10.91;45.45;101693.16;5090600;28;20024;-63
2022/04/11 07:57:54;;;;;;;10.30;5.82;;;;;;;11.01;45.04;101682.34;5088997;28;20040;-61
2022/04/11 08:00:23;;;;;;;8.43;6.25;;;;;;;11.15;45.30;101676.56;5089876;28;20043;-60
2022/04/11 08:02:56;;;;;;;10.00;6.15;;;;;;;11.23;45.02;101679.00;5086621;28;20032;-63
2022/04/11 08:05:22;;;;;;;10.93;5.90;;;;;;;11.36;44.74;101677.94;5087964;28;20325;-61
2022/04/11 08:07:48;;;;;;;10.25;4.22;;;;;;;12.09;52.74;101674.78;5086075;28;20024;-61
2022/04/11 08:10:14;;;;;;;11.30;4.35;;;;;;;12.82;50.96;101678.84;5087555;28;20080;-62
2022/04/11 08:12:41;;;;;;;8.38;4.28;;;;;;;13.41;49.35;101662.72;5084639;28;20024;-63
2022/04/11 08:15:09;;;;;;;4.32;3.45;;;;;;;13.86;47.25;101652.53;5088842;28;20035;-62
2022/04/11 08:17:35;;;;;;;8.68;4.00;;;;;;;14.12;45.07;101662.16;5081087;28;20089;-60
2022/04/11 08:20:00;;;;;;;6.18;4.75;;;;;;;14.02;44.00;101657.25;5087527;28;20048;-60
2022/04/11 08:22:25;;;;;;;7.20;5.13;;;;;;;13.85;40.55;101651.69;5084832;28;20043;-62
2022/04/11 08:24:50;;;;;;;7.75;3.92;;;;;;;13.99;43.88;101655.00;5087513;28;20516;-63
2022/04/11 08:27:16;;;;;;;7.28;4.05;;;;;;;14.11;43.13;101652.94;5086392;28;20540;-62
2022/04/11 08:29:41;;;;;;;6.72;3.60;;;;;;;14.34;43.25;101654.63;5087506;28;20062;-61
2022/04/11 08:32:07;;;;;;;6.10;3.42;;;;;;;14.52;42.88;101650.72;5084041;28;20032;-63
2022/04/11 08:34:35;;;;;;;7.90;4.15;;;;;;;14.51;41.15;101648.19;5087753;28;20032;-61
2022/04/11 08:37:00;;;;;;;3.97;3.08;;;;;;;14.90;41.62;101640.56;5088149;28;20039;-63
2022/04/11 08:39:28;;;;;;;7.30;4.05;;;;;;;15.00;40.81;101646.22;5085848;28;20028;-63
2022/04/11 08:41:59;;;;;;;7.88;4.03;;;;;;;15.17;40.24;101647.00;5088883;28;20126;-63
2022/04/11 08:44:26;;;;;;;7.30;3.50;;;;;;;15.24;39.99;101646.75;5085813;28;20035;-64
2022/04/11 08:46:53;;;;;;;6.15;3.10;;;;;;;15.38;40.71;101642.41;5084477;28;20028;-65
2022/04/11 08:49:22;;;;;;;5.95;3.08;;;;;;;15.47;40.34;101640.81;5085718;28;20058;-64
2022/04/11 08:51:47;;;;;;;12.70;3.85;;;;;;;15.44;38.40;101646.09;5077045;28;20032;-65
2022/04/11 08:54:16;;;;;;;5.03;3.05;;;;;;;15.66;39.22;101638.47;5086908;28;20035;-63
2022/04/11 08:56:41;;;;;;;6.50;2.97;;;;;;;15.79;38.26;101647.53;5088175;28;20047;-63
2022/04/11 08:59:06;;;;;;;4.40;3.13;;;;;;;15.70;36.75;101639.63;5082699;28;20054;-62
2022/04/11 09:01:34;;;;;;;5.30;3.03;;;;;;;15.54;35.93;101640.59;5085205;28;20047;-62
2022/04/11 09:03:59;;;;;;;6.05;2.80;;;;;;;15.62;37.20;101647.66;5084123;28;20445;-63
2022/04/11 09:06:24;;;;;;;5.20;3.08;;;;;;;15.61;37.01;101651.56;5090978;28;20120;-64
2022/04/11 09:11:46;;;;;;;3.35;2.28;;;;;;;15.70;36.62;101649.97;5089633;28;20039;-61
2022/04/11 09:14:12;;;;;;;5.20;3.15;;;;;;;15.30;34.17;101640.09;5083647;28;20036;-59
2022/04/11 09:16:50;;;;;;;5.68;2.92;;;;;;;15.07;36.03;101637.63;5090883;28;20032;-61
2022/04/11 09:19:27;;;;;;;8.13;3.40;;;;;;;14.80;37.04;101632.88;5092235;28;20030;-61
2022/04/11 09:21:54;;;;;;;7.72;3.80;;;;;;;14.66;35.76;101631.63;5091541;28;20031;-61
2022/04/11 09:24:21;;;;;;;7.30;3.70;;;;;;;14.49;36.28;101631.69;5093404;28;20032;-61
2022/04/11 09:26:47;;;;;;;5.70;2.80;;;;;;;14.42;35.44;101619.81;5087900;28;20039;-61
2022/04/11 09:29:15;;;;;;;8.50;3.40;;;;;;;14.37;36.59;101612.22;5093768;28;20024;-62
2022/04/11 09:31:44;;;;;;;5.28;3.40;;;;;;;14.33;36.41;101613.00;5095334;28;20016;-62
2022/04/11 09:34:17;;;;;;;4.53;3.03;;;;;;;14.32;36.49;101606.59;5086445;28;20024;-62
2022/04/11 09:36:49;;;;;;;8.15;2.92;;;;;;;14.25;35.94;101611.50;5113814;28;20091;-62
2022/04/11 09:39:18;;;;;;;5.57;3.05;;;;;;;14.21;35.62;101610.34;5099028;28;20043;-62
2022/04/11 09:41:46;;;;;;;4.60;2.90;;;;;;;14.20;35.51;101608.66;5097843;28;20024;-62
2022/04/11 09:44:31;;;;;;;4.03;2.97;;;;;;;14.24;36.15;101601.47;5105003;28;20047;-62
2022/04/11 09:47:01;;;;;;;5.25;3.60;;;;;;;14.20;35.29;101592.75;5091955;28;20020;-62
2022/04/11 09:49:27;;;;;;;8.07;3.42;;;;;;;14.18;35.37;101594.09;5100294;28;20034;-63
2022/04/11 09:52:11;;;;;;;7.10;3.30;;;;;;;14.23;37.18;101596.97;5098726;28;20028;-63
2022/04/11 09:54:44;;;;;;;5.40;3.10;;;;;;;14.21;35.65;101591.63;5096857;28;20032;-62
2022/04/11 09:57:13;;;;;;;5.40;3.38;;;;;;;14.27;36.35;101580.56;5091932;28;20040;-61
2022/04/11 09:59:43;;;;;;;8.05;3.80;;;;;;;14.25;36.38;101578.00;5096964;28;20569;-62
2022/04/11 10:02:10;;;;;;;6.88;3.92;;;;;;;14.16;35.15;101571.19;5105778;28;20040;-62
2022/04/11 10:04:36;;;;;;;5.72;3.33;;;;;;;14.14;35.81;101574.22;5103238;28;20031;-62
2022/04/11 10:07:03;;;;;;;6.97;3.40;;;;;;;14.22;36.06;101578.50;5093122;27;20024;-62
2022/04/11 10:09:29;;;;;;;7.28;3.78;;;;;;;14.29;36.63;101570.78;5094607;28;20070;-60
2022/04/11 10:11:55;;;;;;;8.40;3.72;;;;;;;14.25;34.70;101576.06;5090074;28;20067;-61
2022/04/11 10:14:26;;;;;;;8.48;2.85;;;;;;;14.30;34.28;101578.06;5090938;28;20024;-62
2022/04/11 10:16:57;;;;;;;9.57;3.70;;;;;;;14.25;35.32;101586.38;5102586;28;20169;-63
2022/04/11 10:19:25;;;;;;;7.28;4.00;;;;;;;14.16;34.59;101579.56;5087262;28;20105;-62
2022/04/11 10:21:54;;;;;;;7.97;3.97;;;;;;;14.13;34.94;101575.34;5091178;28;20081;-62
2022/04/11 10:24:38;;;;;;;5.35;3.65;;;;;;;14.09;35.29;101573.34;5088463;28;20046;-62
2022/04/11 10:27:22;;;;;;;6.45;4.03;;;;;;;14.13;36.38;101580.09;5086784;28;20031;-62
2022/04/11 10:29:49;;;;;;;8.45;3.80;;;;;;;14.15;34.33;101573.16;5087486;28;20087;-62
2022/04/11 10:32:18;;;;;;;7.65;3.70;;;;;;;14.20;35.05;101558.41;5089513;28;20044;-60
2022/04/11 10:34:47;;;;;;;5.72;3.65;;;;;;;14.15;33.27;101566.72;5085375;28;20119;-60
2022/04/11 10:37:17;;;;;;;9.57;4.00;;;;;;;14.15;34.20;101570.34;5087529;28;20810;-62
2022/04/11 10:39:44;;;;;;;10.23;4.03;;;;;;;14.12;33.76;101570.88;5088485;28;20109;-61
2022/04/11 10:42:14;;;;;;;6.07;3.00;;;;;;;14.54;41.88;101569.44;5086192;28;21625;-63
2022/04/11 10:44:48;;;;;;;5.07;3.40;;;;;;;14.57;33.85;101561.38;5083319;28;20477;-63
2022/04/11 10:47:16;;;;;;;6.22;3.50;;;;;;;14.78;35.44;101553.22;5087209;28;20031;-63
2022/04/11 10:49:45;;;;;;;5.28;2.92;;;;;;;15.07;36.78;101545.38;5088547;28;20024;-61
2022/04/11 10:52:32;;;;;;;6.70;3.70;;;;;;;14.91;33.82;101536.84;5088860;28;20032;-65
2022/04/11 10:55:15;;;;;;;7.30;4.45;;;;;;;14.77;34.15;101541.19;5089550;28;20040;-61
2022/04/11 10:57:59;;;;;;;6.00;2.90;;;;;;;15.02;37.78;101545.34;5086234;28;20062;-61
2022/04/11 11:00:26;;;;;;;5.60;3.47;;;;;;;15.08;36.52;101536.72;5091204;28;20054;-61
2022/04/11 11:02:59;;;;;;;6.07;3.70;;;;;;;15.05;33.84;101528.88;5084144;28;20395;-62
2022/04/11 11:05:48;;;;;;;5.78;3.05;;;;;;;15.16;35.59;101532.59;5080666;28;20040;-62
2022/04/11 11:08:14;;;;;;;5.35;2.45;;;;;;;15.46;37.45;101513.22;5085793;28;20403;-62
2022/04/11 11:10:58;;;;;;;5.05;3.22;;;;;;;15.55;36.20;101507.97;5089610;28;20032;-62
2022/04/11 11:13:41;;;;;;;6.88;3.45;;;;;;;15.59;35.24;101502.66;5088814;28;20043;-61
2022/04/11 11:16:06;;;;;;;3.75;2.60;;;;;;;15.81;36.78;101491.34;5085123;28;20050;-64
2022/04/11 11:18:53;;;;;;;7.17;3.90;;;;;;;15.66;34.19;101495.75;5091743;28;20032;-63
2022/04/11 11:21:47;;;;;;;5.32;3.75;;;;;;;15.56;33.63;101497.59;5077928;28;20306;-64
2022/04/11 11:24:14;;;;;;;9.65;3.10;;;;;;;15.69;33.80;101492.41;5096508;28;20036;-63